createdAt,value
2023-05-20T00:02:05.157Z,73.09
2023-05-20T00:05:08.169Z,73.25
2023-05-20T00:08:11.252Z,73.23
2023-05-20T00:11:13.640Z,73.60
2023-05-20T00:14:16.038Z,74.24
2023-05-20T00:17:18.494Z,75.09
2023-05-20T00:20:21.028Z,74.41
2023-05-20T00:23:23.414Z,74.01
2023-05-20T00:26:26.728Z,74.34
2023-05-20T00:29:31.315Z,74.79
2023-05-20T00:32:34.263Z,74.33
2023-05-20T00:35:36.869Z,73.42
2023-05-20T00:38:39.306Z,73.49
2023-05-20T00:41:41.866Z,73.84
2023-05-20T00:44:44.368Z,73.61
2023-05-20T00:47:46.874Z,74.10
2023-05-20T00:50:50.002Z,73.73
2023-05-20T00:53:52.713Z,73.99
2023-05-20T00:56:56.439Z,73.96
2023-05-20T00:59:58.980Z,74.05
2023-05-20T01:03:01.533Z,74.22
2023-05-20T01:06:04.109Z,74.69
2023-05-20T01:09:06.890Z,74.37
2023-05-20T01:12:13.663Z,74.78
2023-05-20T01:15:16.620Z,74.68
2023-05-20T01:18:18.995Z,74.93
2023-05-20T01:21:22.247Z,75.07
2023-05-20T01:24:24.949Z,75.24
2023-05-20T01:27:30.412Z,75.68
2023-05-20T01:30:35.691Z,75.81
2023-05-20T01:33:38.115Z,76.15
2023-05-20T01:36:40.560Z,76.15
2023-05-20T01:39:43.006Z,75.99
2023-05-20T01:42:46.137Z,75.37
2023-05-20T01:45:48.938Z,75.74
2023-05-20T01:48:51.442Z,75.64
2023-05-20T01:51:53.862Z,75.99
2023-05-20T01:54:56.304Z,75.53
2023-05-20T01:57:58.776Z,75.66
2023-05-20T02:01:01.759Z,76.00
2023-05-20T02:04:04.307Z,76.25
2023-05-20T02:07:06.771Z,75.99
2023-05-20T02:10:09.580Z,75.94
2023-05-20T02:13:12.385Z,76.33
2023-05-20T02:16:15.621Z,76.57
2023-05-20T02:19:23.960Z,77.07
2023-05-20T02:22:26.661Z,76.27
2023-05-20T02:25:29.070Z,76.25
2023-05-20T02:28:31.468Z,76.31
2023-05-20T02:31:33.853Z,76.92
2023-05-20T02:34:38.796Z,77.19
2023-05-20T02:37:41.283Z,77.05
2023-05-20T02:40:45.425Z,77.25
2023-05-20T02:43:47.894Z,76.97
2023-05-20T02:46:50.314Z,76.47
2023-05-20T02:49:52.960Z,76.20
2023-05-20T02:52:55.959Z,76.07
2023-05-20T02:55:58.339Z,75.65
2023-05-20T02:59:00.768Z,75.96
2023-05-20T03:02:03.334Z,75.46
2023-05-20T03:05:06.147Z,75.76
2023-05-20T03:08:12.360Z,76.03
2023-05-20T03:11:14.781Z,76.16
2023-05-20T03:14:17.329Z,76.06
2023-05-20T03:17:19.875Z,75.79
2023-05-20T03:20:22.281Z,75.86
2023-05-20T03:23:24.748Z,76.06
2023-05-20T03:26:28.192Z,76.47
2023-05-20T03:29:31.469Z,76.50
2023-05-20T03:32:34.186Z,75.95
2023-05-20T03:35:36.867Z,76.34
2023-05-20T03:38:39.989Z,75.72
2023-05-20T03:41:42.501Z,76.32
2023-05-20T03:44:45.723Z,76.34
2023-05-20T03:47:49.023Z,76.96
2023-05-20T03:50:53.205Z,77.36
2023-05-20T03:53:55.917Z,77.33
2023-05-20T03:56:58.413Z,77.34
2023-05-20T04:00:02.346Z,76.99
2023-05-20T04:03:07.783Z,77.51
2023-05-20T04:06:11.301Z,78.19
2023-05-20T04:09:13.795Z,77.89
2023-05-20T04:12:16.229Z,78.34
2023-05-20T04:15:19.620Z,78.35
2023-05-20T04:18:30.002Z,78.84
2023-05-20T04:21:32.566Z,78.64
2023-05-20T04:24:35.057Z,79.20
2023-05-20T04:27:40.397Z,79.05
2023-05-20T04:30:45.437Z,79.22
2023-05-20T04:33:48.729Z,79.54
2023-05-20T04:36:52.451Z,79.73
2023-05-20T04:39:54.993Z,79.86
2023-05-20T04:42:58.615Z,80.19
2023-05-20T04:46:06.248Z,80.18
2023-05-20T04:49:09.392Z,79.82
2023-05-20T04:52:11.814Z,79.99
2023-05-20T04:55:16.034Z,80.07
2023-05-20T04:58:18.597Z,80.28
2023-05-20T05:01:21.200Z,80.43
2023-05-20T05:04:23.765Z,80.50
2023-05-20T05:07:26.259Z,80.18
2023-05-20T05:10:28.745Z,80.13
2023-05-20T05:13:31.407Z,80.24
2023-05-20T05:16:34.019Z,80.07
2023-05-20T05:19:36.518Z,80.24
2023-05-20T05:22:41.370Z,80.12
2023-05-20T05:25:43.833Z,79.59
2023-05-20T05:28:46.230Z,79.38
2023-05-20T05:31:49.073Z,79.70
2023-05-20T05:34:52.111Z,80.07
2023-05-20T05:37:55.061Z,80.34
2023-05-20T05:40:57.710Z,79.55
2023-05-20T05:44:00.530Z,79.09
2023-05-20T05:47:04.057Z,78.94
2023-05-20T05:50:07.322Z,78.59
2023-05-20T05:53:10.796Z,78.30
2023-05-20T05:56:15.498Z,78.55
2023-05-20T05:59:19.238Z,77.91
2023-05-20T06:02:22.632Z,78.10
2023-05-20T06:05:27.489Z,77.49
2023-05-20T06:08:31.385Z,76.67
2023-05-20T06:11:34.405Z,76.44
2023-05-20T06:14:36.813Z,76.04
2023-05-20T06:17:40.300Z,76.63
2023-05-20T06:20:43.713Z,75.32
2023-05-20T06:23:46.666Z,73.14
2023-05-20T06:26:50.647Z,72.39
2023-05-20T06:29:53.105Z,73.27
2023-05-20T06:32:55.578Z,72.83
2023-05-20T06:35:58.496Z,72.11
2023-05-20T06:39:01.221Z,71.80
2023-05-20T06:42:03.868Z,72.24
2023-05-20T06:45:11.665Z,71.08
2023-05-20T06:48:19.393Z,71.69
2023-05-20T06:51:22.176Z,70.44
2023-05-20T06:54:25.693Z,69.57
2023-05-20T06:57:28.108Z,69.26
2023-05-20T07:00:31.198Z,68.25
2023-05-20T07:03:33.689Z,67.95
2023-05-20T07:06:36.346Z,68.45
2023-05-20T07:09:38.752Z,66.05
2023-05-20T07:12:42.873Z,65.77
2023-05-20T07:15:48.382Z,65.71
2023-05-20T07:18:51.899Z,65.36
2023-05-20T07:21:54.410Z,65.56
2023-05-20T07:25:11.807Z,65.51
2023-05-20T07:28:16.147Z,63.76
2023-05-20T07:31:20.101Z,63.94
2023-05-20T07:34:23.762Z,63.61
2023-05-20T07:37:27.072Z,62.64
2023-05-20T07:40:29.900Z,63.15
2023-05-20T07:43:32.269Z,63.93
2023-05-20T07:46:35.178Z,63.81
2023-05-20T07:49:39.208Z,65.14
2023-05-20T07:52:55.440Z,64.46
2023-05-20T07:56:00.981Z,64.36
2023-05-20T07:59:05.010Z,64.18
2023-05-20T08:02:13.579Z,62.80
2023-05-20T08:05:16.980Z,62.46
2023-05-20T08:08:20.461Z,63.11
2023-05-20T08:11:29.082Z,63.12
2023-05-20T08:14:32.125Z,62.61
2023-05-20T08:17:35.410Z,61.20
2023-05-20T08:20:38.766Z,61.15
2023-05-20T08:23:41.452Z,58.99
2023-05-20T08:26:43.869Z,57.84
2023-05-20T08:29:46.447Z,56.41
2023-05-20T08:32:49.106Z,57.10
2023-05-20T08:35:51.610Z,58.06
2023-05-20T08:38:53.999Z,57.38
2023-05-20T08:41:56.432Z,56.62
2023-05-20T08:44:58.930Z,55.81
2023-05-20T08:48:03.199Z,56.87
2023-05-20T08:51:06.366Z,54.78
2023-05-20T08:54:09.049Z,55.33
2023-05-20T08:57:14.099Z,55.65
2023-05-20T09:00:17.248Z,55.25
2023-05-20T09:03:21.028Z,54.09
2023-05-20T09:06:24.220Z,53.92
2023-05-20T09:09:26.614Z,53.38
2023-05-20T09:12:28.986Z,53.81
2023-05-20T09:15:32.843Z,51.93
2023-05-20T09:18:39.177Z,52.78
2023-05-20T09:21:41.697Z,50.93
2023-05-20T09:24:44.118Z,50.17
2023-05-20T09:27:46.730Z,48.43
2023-05-20T09:30:50.474Z,48.74
2023-05-20T09:33:52.872Z,48.69
2023-05-20T09:36:55.270Z,48.17
2023-05-20T09:40:07.293Z,49.04
2023-05-20T09:43:11.550Z,48.57
2023-05-20T09:46:14.237Z,47.99
2023-05-20T09:49:16.729Z,45.99
2023-05-20T09:52:21.346Z,47.00
2023-05-20T09:55:24.799Z,48.51
2023-05-20T09:58:27.249Z,44.36
2023-05-20T10:01:29.662Z,44.61
2023-05-20T10:04:32.534Z,43.93
2023-05-20T10:07:49.802Z,43.14
2023-05-20T10:11:25.948Z,43.40
2023-05-20T10:14:31.325Z,43.32
2023-05-20T10:18:03.491Z,42.58
2023-05-20T10:21:15.607Z,42.35
2023-05-20T10:24:17.965Z,42.17
2023-05-20T10:27:20.372Z,42.62
2023-05-20T10:30:22.761Z,40.63
2023-05-20T10:33:28.773Z,40.83
2023-05-20T10:36:32.295Z,42.49
2023-05-20T10:39:34.779Z,41.24
2023-05-20T10:42:37.197Z,41.11
2023-05-20T10:45:49.978Z,41.26
2023-05-20T10:48:52.479Z,40.91
2023-05-20T10:51:55.696Z,39.16
2023-05-20T10:54:58.867Z,40.46
2023-05-20T10:58:01.229Z,40.36
2023-05-20T11:01:03.681Z,38.73
2023-05-20T11:04:06.623Z,39.07
2023-05-20T11:07:09.182Z,38.84
2023-05-20T11:10:11.952Z,38.95
2023-05-20T11:13:17.118Z,38.47
2023-05-20T11:16:21.296Z,37.60
2023-05-20T11:19:23.869Z,37.26
2023-05-20T11:22:26.376Z,36.58
2023-05-20T11:25:28.816Z,38.04
2023-05-20T11:28:33.266Z,38.28
2023-05-20T11:31:38.154Z,38.68
2023-05-20T11:34:40.781Z,37.05
2023-05-20T11:37:43.262Z,37.00
2023-05-20T11:40:51.242Z,36.22
2023-05-20T11:44:00.475Z,37.68
2023-05-20T11:47:03.721Z,37.12
2023-05-20T11:50:07.617Z,37.68
2023-05-20T11:53:11.642Z,36.84
2023-05-20T11:56:14.137Z,36.68
2023-05-20T11:59:16.578Z,35.80
2023-05-20T12:02:19.092Z,34.85
2023-05-20T12:05:21.686Z,35.37
2023-05-20T12:08:24.163Z,35.28
2023-05-20T12:11:26.517Z,35.92
2023-05-20T12:14:28.917Z,34.40
2023-05-20T12:17:34.865Z,34.79
2023-05-20T12:20:37.759Z,34.12
2023-05-20T12:23:40.422Z,34.55
2023-05-20T12:26:42.840Z,35.27
2023-05-20T12:29:45.210Z,35.32
2023-05-20T12:32:50.081Z,34.72
2023-05-20T12:35:52.485Z,34.40
2023-05-20T12:38:54.899Z,34.32
2023-05-20T12:41:57.353Z,35.75
2023-05-20T12:44:59.757Z,33.55
2023-05-20T12:48:02.232Z,35.79
2023-05-20T12:51:04.898Z,36.01
2023-05-20T12:54:07.312Z,37.52
2023-05-20T12:57:09.776Z,35.45
2023-05-20T13:00:12.790Z,35.50
2023-05-20T13:03:15.394Z,35.34
2023-05-20T13:06:17.857Z,34.17
2023-05-20T13:09:20.219Z,35.03
2023-05-20T13:12:22.593Z,34.66
2023-05-20T13:15:24.969Z,36.00
2023-05-20T13:18:27.330Z,36.79
2023-05-20T13:21:29.708Z,37.64
2023-05-20T13:24:32.089Z,37.10
2023-05-20T13:27:34.480Z,36.36
2023-05-20T13:30:37.085Z,35.34
2023-05-20T13:33:39.750Z,36.41
2023-05-20T13:36:42.247Z,34.26
2023-05-20T13:39:44.657Z,34.07
2023-05-20T13:42:47.059Z,34.42
2023-05-20T13:45:49.430Z,35.04
2023-05-20T13:48:51.807Z,34.53
2023-05-20T13:51:54.185Z,36.20
2023-05-20T13:54:56.560Z,34.32
2023-05-20T13:57:58.924Z,34.40
2023-05-20T14:01:01.318Z,33.81
2023-05-20T14:04:03.708Z,33.00
2023-05-20T14:07:07.734Z,34.05
2023-05-20T14:10:11.621Z,33.04
2023-05-20T14:13:14.053Z,32.96
2023-05-20T14:16:16.445Z,32.61
2023-05-20T14:19:18.911Z,32.55
2023-05-20T14:22:21.317Z,32.07
2023-05-20T14:25:23.710Z,32.76
2023-05-20T14:28:26.257Z,33.52
2023-05-20T14:31:28.679Z,34.00
2023-05-20T14:34:31.075Z,34.77
2023-05-20T14:37:33.467Z,33.92
2023-05-20T14:40:36.248Z,33.00
2023-05-20T14:43:39.044Z,33.90
2023-05-20T14:46:41.496Z,33.75
2023-05-20T14:49:44.679Z,33.23
2023-05-20T14:52:47.019Z,33.04
2023-05-20T14:55:49.416Z,34.08
2023-05-20T14:58:51.808Z,33.13
2023-05-20T15:01:54.326Z,33.74
2023-05-20T15:04:56.759Z,34.65
2023-05-20T15:07:59.167Z,34.34
2023-05-20T15:11:01.566Z,33.79
2023-05-20T15:14:03.970Z,33.57
2023-05-20T15:17:06.587Z,35.02
2023-05-20T15:20:10.007Z,34.82
2023-05-20T15:23:12.453Z,34.73
2023-05-20T15:26:14.795Z,34.38
2023-05-20T15:29:17.254Z,34.58
2023-05-20T15:32:20.125Z,35.04
2023-05-20T15:35:22.686Z,34.63
2023-05-20T15:38:25.145Z,34.20
2023-05-20T15:41:27.586Z,33.40
2023-05-20T15:44:30.085Z,33.32
2023-05-20T15:47:32.477Z,35.07
2023-05-20T15:50:36.309Z,37.52
2023-05-20T15:53:40.669Z,36.03
2023-05-20T15:56:43.213Z,36.40
2023-05-20T15:59:45.590Z,35.00
2023-05-20T16:02:48.144Z,35.77
2023-05-20T16:05:50.784Z,36.14
2023-05-20T16:08:53.201Z,36.84
2023-05-20T16:11:56.307Z,37.38
2023-05-20T16:14:58.676Z,38.18
2023-05-20T16:18:01.258Z,38.17
2023-05-20T16:21:07.335Z,38.94
2023-05-20T16:24:09.700Z,38.91
2023-05-20T16:27:12.189Z,39.56
2023-05-20T16:30:14.576Z,40.54
2023-05-20T16:33:17.577Z,41.08
2023-05-20T16:36:19.993Z,41.30
2023-05-20T16:39:22.444Z,41.37
2023-05-20T16:42:24.794Z,41.04
2023-05-20T16:45:27.276Z,41.69
2023-05-20T16:48:29.679Z,41.96
2023-05-20T16:51:32.225Z,42.22
2023-05-20T16:54:37.303Z,42.50
2023-05-20T16:57:39.715Z,42.56
2023-05-20T17:00:42.116Z,43.10
2023-05-20T17:03:44.544Z,43.40
2023-05-20T17:06:49.857Z,43.52
2023-05-20T17:09:52.217Z,43.24
2023-05-20T17:12:54.719Z,43.69
2023-05-20T17:15:57.101Z,44.40
2023-05-20T17:18:59.567Z,44.64
2023-05-20T17:22:02.113Z,44.47
2023-05-20T17:25:04.904Z,44.80
2023-05-20T17:28:07.281Z,45.55
2023-05-20T17:31:09.910Z,47.15
2023-05-20T17:34:12.497Z,47.80
2023-05-20T17:37:15.147Z,49.02
2023-05-20T17:40:17.604Z,49.30
2023-05-20T17:43:20.950Z,50.46
2023-05-20T17:46:23.441Z,50.13
2023-05-20T17:49:25.937Z,50.75
2023-05-20T17:52:28.642Z,51.05
2023-05-20T17:55:32.608Z,50.53
2023-05-20T17:58:34.985Z,51.54
2023-05-20T18:01:37.533Z,52.30
2023-05-20T18:04:40.038Z,52.70
2023-05-20T18:07:43.028Z,53.73
2023-05-20T18:10:45.539Z,54.16
2023-05-20T18:13:47.981Z,53.91
2023-05-20T18:16:50.348Z,53.36
2023-05-20T18:19:52.737Z,54.36
2023-05-20T18:22:58.531Z,53.79
2023-05-20T18:26:01.111Z,52.55
2023-05-20T18:29:03.572Z,52.98
2023-05-20T18:32:06.654Z,50.17
2023-05-20T18:35:09.289Z,49.70
2023-05-20T18:38:11.717Z,49.57
2023-05-20T18:41:14.123Z,50.67
2023-05-20T18:44:16.920Z,50.61
2023-05-20T18:47:19.352Z,50.73
2023-05-20T18:50:21.758Z,50.86
2023-05-20T18:53:24.194Z,51.48
2023-05-20T18:56:27.325Z,51.65
2023-05-20T18:59:29.702Z,52.02
2023-05-20T19:02:32.123Z,51.78
2023-05-20T19:05:34.873Z,52.26
2023-05-20T19:08:37.573Z,52.24
2023-05-20T19:11:40.028Z,52.31
2023-05-20T19:14:42.430Z,51.71
2023-05-20T19:17:44.818Z,51.89
2023-05-20T19:20:47.204Z,50.58
2023-05-20T19:23:49.930Z,51.27
2023-05-20T19:26:52.337Z,50.20
2023-05-20T19:29:54.718Z,50.12
2023-05-20T19:32:57.140Z,49.10
2023-05-20T19:35:59.587Z,49.89
2023-05-20T19:39:01.961Z,50.09
2023-05-20T19:42:04.553Z,50.63
2023-05-20T19:45:07.515Z,51.64
2023-05-20T19:48:10.009Z,52.15
2023-05-20T19:51:12.435Z,52.23
2023-05-20T19:54:14.877Z,52.66
2023-05-20T19:57:17.259Z,53.21
2023-05-20T20:00:20.950Z,53.47
2023-05-20T20:03:23.238Z,54.21
2023-05-20T20:06:25.622Z,55.09
2023-05-20T20:09:28.100Z,55.62
2023-05-20T20:12:30.537Z,55.52
2023-05-20T20:15:33.123Z,55.60
2023-05-20T20:18:35.687Z,56.30
2023-05-20T20:21:40.265Z,56.59
2023-05-20T20:24:42.634Z,56.56
2023-05-20T20:27:45.040Z,56.38
2023-05-20T20:30:47.444Z,57.02
2023-05-20T20:33:50.711Z,56.50
2023-05-20T20:36:54.159Z,56.68
2023-05-20T20:39:56.707Z,57.31
2023-05-20T20:42:59.106Z,57.39
2023-05-20T20:46:01.516Z,57.44
2023-05-20T20:49:03.875Z,58.54
2023-05-20T20:52:06.738Z,58.89
2023-05-20T20:55:10.264Z,59.39
2023-05-20T20:58:13.578Z,59.11
2023-05-20T21:01:17.574Z,59.67
2023-05-20T21:04:20.971Z,59.99
2023-05-20T21:07:25.598Z,60.76
2023-05-20T21:10:29.308Z,59.95
2023-05-20T21:13:31.798Z,59.95
2023-05-20T21:16:34.217Z,58.78
2023-05-20T21:19:36.677Z,58.48
2023-05-20T21:22:39.304Z,58.62
2023-05-20T21:25:41.833Z,59.18
2023-05-20T21:28:44.178Z,59.61
2023-05-20T21:31:46.569Z,59.24
2023-05-20T21:34:48.934Z,58.13
2023-05-20T21:37:51.926Z,58.24
2023-05-20T21:40:54.335Z,58.63
2023-05-20T21:43:56.731Z,58.38
2023-05-20T21:46:59.250Z,58.61
2023-05-20T21:50:02.065Z,57.98
2023-05-20T21:53:04.443Z,57.79
2023-05-20T21:56:06.926Z,57.55
2023-05-20T21:59:09.357Z,57.85
2023-05-20T22:02:11.769Z,58.60
2023-05-20T22:05:14.163Z,58.73
2023-05-20T22:08:17.082Z,59.11
2023-05-20T22:11:19.927Z,59.26
2023-05-20T22:14:22.376Z,59.00
2023-05-20T22:17:25.009Z,58.99
2023-05-20T22:20:28.775Z,58.83
2023-05-20T22:23:31.137Z,59.37
2023-05-20T22:26:34.571Z,60.13
2023-05-20T22:29:37.082Z,60.25
2023-05-20T22:32:40.431Z,60.66
2023-05-20T22:35:42.835Z,60.92
2023-05-20T22:38:45.221Z,61.11
2023-05-20T22:41:47.587Z,61.65
2023-05-20T22:44:50.158Z,61.56
2023-05-20T22:47:53.113Z,61.04
2023-05-20T22:50:56.183Z,60.99
2023-05-20T22:53:58.583Z,61.66
2023-05-20T22:57:01.013Z,61.40
2023-05-20T23:00:04.995Z,61.32
2023-05-20T23:03:07.437Z,61.74
2023-05-20T23:06:09.918Z,62.52
2023-05-20T23:09:12.756Z,62.96
2023-05-20T23:12:15.686Z,62.24
2023-05-20T23:15:18.234Z,62.62
2023-05-20T23:18:20.743Z,62.47
2023-05-20T23:21:23.259Z,62.41
2023-05-20T23:24:25.633Z,62.52
2023-05-20T23:27:28.020Z,62.90
2023-05-20T23:30:30.498Z,62.89
2023-05-20T23:33:33.014Z,62.45
2023-05-20T23:36:35.509Z,62.07
2023-05-20T23:39:38.016Z,62.20
2023-05-20T23:42:40.429Z,62.86
2023-05-20T23:45:42.862Z,63.21
2023-05-20T23:48:45.907Z,63.02
2023-05-20T23:51:48.295Z,63.10
2023-05-20T23:54:51.682Z,63.64
2023-05-20T23:57:54.621Z,63.28
